Time;durP1;ratioP1;P1;durP2;ratioP2;P2;SDS_P1;SDS_P2;PMS_P1;PMS_P2;Temp;Humidity;BMP_temperature;BMP_pressure;BME280_temperature;BME280_humidity;BME280_pressure;Samples;Min_cycle;Max_cycle;Signal;HPM_P1;HPM_P2
2022/10/05 00:03:59;;;;;;;0.10;0.10;;;;;;;12.49;63.43;98506.03;8250745;28;20234;-73
2022/10/05 00:08:11;;;;;;;0.10;0.10;;;;;;;12.33;64.18;98494.63;8250759;28;20250;-73
2022/10/05 00:12:15;;;;;;;0.10;0.10;;;;;;;11.90;65.44;98486.91;8250510;28;20234;-74
2022/10/05 00:16:21;;;;;;;0.10;0.10;;;;;;;12.47;63.84;98494.88;8250523;28;20237;-74
2022/10/05 00:20:26;;;;;;;0.10;0.10;;;;;;;12.41;63.43;98492.53;8250472;28;20304;-74
2022/10/05 00:24:29;;;;;;;0.10;0.10;;;;;;;12.67;62.47;98487.97;8249853;28;20233;-73
2022/10/05 00:28:32;;;;;;;0.10;0.10;;;;;;;12.12;64.05;98481.63;8250164;28;20302;-74
2022/10/05 00:32:37;;;;;;;0.10;0.10;;;;;;;12.61;62.79;98480.44;8249897;28;20258;-74
2022/10/05 00:36:40;;;;;;;0.10;0.10;;;;;;;12.67;62.15;98478.41;8250393;28;20230;-74
2022/10/05 00:40:52;;;;;;;0.00;0.00;;;;;;;12.70;62.15;98482.63;8250020;28;20521;-74
2022/10/05 00:45:00;;;;;;;0.10;0.10;;;;;;;12.59;62.39;98488.31;8250045;28;20225;-74
2022/10/05 00:49:15;;;;;;;0.10;0.10;;;;;;;12.84;61.66;98488.03;8249763;28;20552;-74
2022/10/05 00:53:27;;;;;;;0.10;0.10;;;;;;;12.68;62.16;98474.91;8249763;28;20226;-74
2022/10/05 00:57:39;;;;;;;0.10;0.10;;;;;;;12.57;62.33;98473.69;8249368;28;20464;-73
2022/10/05 01:01:44;;;;;;;0.10;0.10;;;;;;;12.70;61.77;98472.25;8249667;28;20226;-74
2022/10/05 01:05:58;;;;;;;0.10;0.10;;;;;;;12.77;61.10;98457.19;8249666;28;20229;-73
2022/10/05 01:10:06;;;;;;;0.10;0.10;;;;;;;12.07;63.61;98447.25;8249695;28;20266;-74
2022/10/05 01:14:14;;;;;;;0.10;0.10;;;;;;;12.23;63.55;98460.41;8249743;28;20431;-74
2022/10/05 01:18:19;;;;;;;0.10;0.10;;;;;;;12.36;62.78;98454.72;8249564;28;20261;-74
2022/10/05 01:22:33;;;;;;;0.10;0.10;;;;;;;12.63;61.86;98466.47;8249524;28;20234;-75
2022/10/05 01:26:46;;;;;;;0.10;0.10;;;;;;;12.38;62.71;98464.09;8248970;28;20230;-74
2022/10/05 01:30:57;;;;;;;0.10;0.10;;;;;;;12.57;61.61;98461.53;8249478;28;20273;-74
2022/10/05 01:35:08;;;;;;;0.07;0.07;;;;;;;12.62;61.32;98467.38;8249141;28;20257;-74
2022/10/05 01:39:17;;;;;;;0.10;0.10;;;;;;;12.51;62.10;98472.22;8249172;28;20424;-74
2022/10/05 01:43:23;;;;;;;0.10;0.10;;;;;;;12.47;62.20;98473.22;8251052;28;20233;-74
2022/10/05 01:47:33;;;;;;;0.10;0.10;;;;;;;12.56;61.52;98469.41;8254351;28;20238;-73
2022/10/05 01:51:43;;;;;;;0.10;0.10;;;;;;;12.44;61.61;98470.78;8255061;28;20273;-74
2022/10/05 01:55:53;;;;;;;0.10;0.10;;;;;;;12.46;61.49;98476.75;8254634;28;20226;-74
2022/10/05 02:00:04;;;;;;;0.10;0.10;;;;;;;12.37;61.82;98475.41;8254712;28;20252;-74
2022/10/05 02:04:15;;;;;;;0.10;0.10;;;;;;;12.45;61.59;98468.13;8254616;28;20234;-74
2022/10/05 02:08:43;;;;;;;0.10;0.10;;;;;;;12.26;62.44;98470.69;8253432;28;20242;-74
2022/10/05 02:12:49;;;;;;;0.10;0.10;;;;;;;12.40;62.02;98466.66;8254077;28;20238;-75
2022/10/05 02:16:53;;;;;;;0.10;0.10;;;;;;;12.12;62.92;98458.28;8254161;28;20234;-74
2022/10/05 02:20:58;;;;;;;0.07;0.07;;;;;;;12.24;62.35;98443.94;8254319;28;20515;-74
2022/10/05 02:25:03;;;;;;;0.10;0.10;;;;;;;12.39;61.66;98438.97;8254110;28;20525;-74
2022/10/05 02:29:09;;;;;;;0.10;0.10;;;;;;;12.40;61.89;98438.06;8253619;28;20601;-74
2022/10/05 02:33:18;;;;;;;0.10;0.10;;;;;;;12.27;61.85;98437.75;8253897;28;20474;-74
2022/10/05 02:37:28;;;;;;;0.10;0.10;;;;;;;12.22;62.20;98437.97;8253752;28;20250;-74
2022/10/05 02:41:40;;;;;;;0.00;0.00;;;;;;;12.02;63.25;98435.38;8253173;28;20238;-74
2022/10/05 02:45:48;;;;;;;0.00;0.00;;;;;;;12.12;62.63;98444.47;8253527;28;20241;-74
2022/10/05 02:49:54;;;;;;;0.10;0.10;;;;;;;12.26;61.96;98443.84;8253238;28;20239;-75
2022/10/05 02:54:05;;;;;;;0.10;0.10;;;;;;;12.04;62.62;98442.19;8252843;28;20470;-75
2022/10/05 02:58:11;;;;;;;0.10;0.10;;;;;;;12.12;62.67;98441.84;8252928;28;20226;-74
2022/10/05 03:02:19;;;;;;;0.00;0.00;;;;;;;12.25;62.09;98443.00;8252856;28;20233;-74
2022/10/05 03:06:26;;;;;;;0.10;0.10;;;;;;;12.27;61.98;98429.97;8252630;28;20517;-74
2022/10/05 03:10:35;;;;;;;0.10;0.10;;;;;;;12.26;61.58;98433.47;8252128;28;20234;-74
2022/10/05 03:14:43;;;;;;;0.10;0.10;;;;;;;12.15;62.02;98423.56;8252685;28;20234;-74
2022/10/05 03:18:54;;;;;;;0.00;0.00;;;;;;;12.12;62.47;98408.94;8252291;28;20242;-74
2022/10/05 03:23:00;;;;;;;0.10;0.10;;;;;;;11.58;65.14;98420.75;8252027;28;20238;-73
2022/10/05 03:27:13;;;;;;;0.10;0.10;;;;;;;11.28;66.00;98415.88;8251959;28;20234;-73
2022/10/05 03:31:22;;;;;;;0.10;0.10;;;;;;;11.95;63.30;98418.38;8251973;28;20292;-73
2022/10/05 03:35:28;;;;;;;0.10;0.10;;;;;;;11.81;63.26;98416.34;8251951;28;20241;-74
2022/10/05 03:39:35;;;;;;;0.10;0.10;;;;;;;11.51;65.46;98412.34;8219338;28;20234;-73
2022/10/05 03:43:54;;;;;;;0.10;0.10;;;;;;;11.65;64.38;98408.34;8219570;28;20469;-73
2022/10/05 03:48:03;;;;;;;0.10;0.10;;;;;;;11.58;65.04;98402.59;8219566;28;20231;-73
2022/10/05 03:52:10;;;;;;;0.10;0.10;;;;;;;11.46;65.67;98406.53;8219360;28;20231;-74
2022/10/05 03:56:15;;;;;;;0.00;0.00;;;;;;;11.11;67.35;98389.78;8219010;28;20550;-74
2022/10/05 04:00:22;;;;;;;0.10;0.10;;;;;;;11.55;65.22;98395.75;8218872;28;20428;-74
2022/10/05 04:04:27;;;;;;;0.10;0.10;;;;;;;11.64;64.63;98398.88;8219100;28;20240;-74
2022/10/05 04:08:33;;;;;;;0.10;0.10;;;;;;;11.78;64.52;98393.94;8217738;28;20549;-73
2022/10/05 04:12:39;;;;;;;0.10;0.10;;;;;;;11.91;63.47;98395.16;8218774;28;20470;-73
2022/10/05 04:16:46;;;;;;;0.10;0.10;;;;;;;11.95;62.94;98397.63;8218742;28;20238;-73
2022/10/05 04:20:51;;;;;;;0.10;0.10;;;;;;;11.98;63.00;98405.28;8218615;28;20239;-73
2022/10/05 04:24:56;;;;;;;0.10;0.10;;;;;;;11.92;62.86;98396.00;8218475;28;20239;-73
2022/10/05 04:29:04;;;;;;;0.10;0.10;;;;;;;11.87;63.21;98396.16;8218166;28;20514;-73
2022/10/05 04:33:11;;;;;;;0.10;0.10;;;;;;;12.05;62.37;98398.91;8218488;28;20231;-74
2022/10/05 04:37:20;;;;;;;0.10;0.10;;;;;;;11.92;63.13;98396.84;8218404;28;20277;-73
2022/10/05 04:41:44;;;;;;;0.10;0.10;;;;;;;11.95;63.15;98403.66;8218417;28;20242;-74
2022/10/05 04:46:05;;;;;;;0.10;0.10;;;;;;;11.89;62.92;98412.53;8212860;28;20231;-76
2022/10/05 04:50:18;;;;;;;0.10;0.10;;;;;;;11.92;62.89;98409.81;8217949;28;20245;-75
2022/10/05 04:54:27;;;;;;;0.10;0.10;;;;;;;11.99;62.74;98409.56;8217685;28;20465;-76
2022/10/05 04:58:59;;;;;;;0.10;0.10;;;;;;;11.84;63.23;98411.00;8217493;28;20541;-76
2022/10/05 05:03:35;;;;;;;0.10;0.10;;;;;;;11.71;63.53;98408.13;8217873;28;20231;-76
2022/10/05 05:07:47;;;;;;;0.10;0.10;;;;;;;11.83;63.24;98392.00;8215754;28;20309;-77
2022/10/05 05:12:02;;;;;;;0.10;0.10;;;;;;;11.82;63.42;98403.31;8217751;28;20526;-76
2022/10/05 05:16:08;;;;;;;0.10;0.10;;;;;;;11.85;63.44;98410.94;8217746;28;20234;-74
2022/10/05 05:20:20;;;;;;;0.10;0.10;;;;;;;11.88;63.26;98417.75;8224355;28;20243;-77
2022/10/05 05:24:34;;;;;;;0.10;0.10;;;;;;;11.84;63.45;98413.59;8224772;28;20250;-75
2022/10/05 05:28:44;;;;;;;0.07;0.07;;;;;;;11.35;65.57;98419.91;8223428;28;20243;-75
2022/10/05 05:33:06;;;;;;;0.10;0.10;;;;;;;11.65;64.16;98424.78;8223749;28;20227;-75
2022/10/05 05:37:15;;;;;;;0.10;0.10;;;;;;;11.08;65.75;98428.78;8223401;28;20231;-75
2022/10/05 05:41:24;;;;;;;0.10;0.10;;;;;;;11.40;65.54;98429.25;8223759;28;20234;-75
2022/10/05 05:45:37;;;;;;;0.10;0.10;;;;;;;11.47;65.64;98433.31;8222494;28;20234;-75
2022/10/05 05:49:47;;;;;;;0.10;0.10;;;;;;;11.46;65.02;98441.97;8223073;28;20238;-75
2022/10/05 05:53:52;;;;;;;0.10;0.10;;;;;;;11.34;65.24;98436.38;8223081;28;20242;-76
2022/10/05 05:57:58;;;;;;;0.10;0.10;;;;;;;10.94;67.50;98427.56;8222934;28;20239;-75
2022/10/05 06:02:05;;;;;;;0.10;0.10;;;;;;;11.43;66.48;98424.78;8222611;28;20231;-75
2022/10/05 06:06:10;;;;;;;0.10;0.10;;;;;;;11.70;65.42;98430.59;8222392;28;20514;-76
2022/10/05 06:10:26;;;;;;;0.10;0.10;;;;;;;11.31;65.73;98438.28;8222518;28;20241;-74
2022/10/05 06:14:34;;;;;;;0.10;0.10;;;;;;;11.81;65.12;98450.91;8221901;28;20242;-75
2022/10/05 06:18:39;;;;;;;0.10;0.10;;;;;;;11.23;67.14;98461.03;8222097;28;20242;-75
2022/10/05 06:22:44;;;;;;;0.10;0.10;;;;;;;11.81;65.26;98466.50;8222275;28;20242;-75
2022/10/05 06:27:23;;;;;;;0.10;0.10;;;;;;;12.02;64.63;98467.38;8222273;28;20530;-75
2022/10/05 06:31:40;;;;;;;0.10;0.10;;;;;;;12.46;63.50;98469.81;8208113;28;20239;-75
2022/10/05 06:35:53;;;;;;;0.10;0.10;;;;;;;12.89;62.06;98478.28;8221801;28;20431;-75
2022/10/05 06:40:05;;;;;;;0.10;0.10;;;;;;;12.94;62.77;98477.22;8221684;28;20459;-75
2022/10/05 06:44:10;;;;;;;0.10;0.10;;;;;;;13.02;61.42;98478.56;8221380;28;20231;-76
2022/10/05 06:48:20;;;;;;;0.10;0.10;;;;;;;12.73;63.30;98482.47;8221216;28;20276;-74
2022/10/05 06:52:26;;;;;;;0.10;0.10;;;;;;;12.53;63.89;98488.56;8221181;28;20403;-75
2022/10/05 06:56:33;;;;;;;0.10;0.10;;;;;;;12.48;64.13;98498.31;8220615;28;20559;-75
2022/10/05 07:00:40;;;;;;;0.10;0.10;;;;;;;12.81;63.23;98493.41;8219849;28;20255;-75
2022/10/05 07:04:55;;;;;;;0.10;0.10;;;;;;;12.73;63.08;98487.69;8220391;28;20231;-75
2022/10/05 07:09:10;;;;;;;0.00;0.00;;;;;;;12.64;63.91;98495.88;8219769;28;20234;-74
2022/10/05 07:13:28;;;;;;;0.10;0.10;;;;;;;12.51;64.53;98498.19;8219955;28;20421;-76
2022/10/05 07:17:44;;;;;;;0.00;0.00;;;;;;;12.92;63.82;98498.09;8219083;28;20286;-74
2022/10/05 07:21:56;;;;;;;0.10;0.10;;;;;;;13.14;63.39;98494.53;8219753;28;20238;-75
2022/10/05 07:26:04;;;;;;;0.10;0.10;;;;;;;13.35;62.86;98500.50;8219659;28;20557;-74
2022/10/05 07:30:10;;;;;;;0.00;0.00;;;;;;;13.57;62.57;98508.13;8219411;28;20235;-77
2022/10/05 07:34:21;;;;;;;0.10;0.10;;;;;;;13.63;62.72;98507.81;8219227;28;20234;-77
2022/10/05 07:38:30;;;;;;;0.10;0.10;;;;;;;14.05;61.56;98504.91;8219071;28;20286;-75
2022/10/05 07:42:43;;;;;;;0.00;0.00;;;;;;;14.30;60.74;98510.59;8217702;28;20506;-75
2022/10/05 07:46:54;;;;;;;0.00;0.00;;;;;;;14.54;60.65;98511.97;8219108;28;20238;-75
2022/10/05 07:51:00;;;;;;;0.00;0.00;;;;;;;14.84;59.92;98517.38;8218336;28;20235;-75
2022/10/05 07:55:06;;;;;;;0.00;0.00;;;;;;;15.48;58.73;98511.34;8218626;28;20234;-75
2022/10/05 07:59:15;;;;;;;0.10;0.10;;;;;;;15.59;58.35;98512.44;8218640;28;20237;-75
2022/10/05 08:03:23;;;;;;;0.00;0.00;;;;;;;15.59;57.70;98504.63;8218159;28;20230;-75
2022/10/05 08:07:28;;;;;;;0.00;0.00;;;;;;;15.86;57.32;98514.44;8217267;28;20255;-75
2022/10/05 08:11:39;;;;;;;0.10;0.10;;;;;;;15.94;58.05;98516.63;8218181;28;20246;-75
2022/10/05 08:15:46;;;;;;;0.00;0.00;;;;;;;16.69;61.94;98509.56;8217541;28;20231;-75
2022/10/05 08:19:55;;;;;;;0.00;0.00;;;;;;;16.42;57.76;98501.59;8217764;28;20235;-77
2022/10/05 08:24:04;;;;;;;0.00;0.00;;;;;;;16.33;57.18;98502.97;8218317;28;20427;-79
2022/10/05 08:28:14;;;;;;;0.00;0.00;;;;;;;16.86;55.87;98505.09;8217594;28;20510;-75
2022/10/05 08:32:22;;;;;;;0.00;0.00;;;;;;;17.18;55.23;98501.31;8217180;28;20242;-78
2022/10/05 08:36:40;;;;;;;0.00;0.00;;;;;;;17.90;53.35;98506.38;8216910;28;20227;-75
2022/10/05 08:41:00;;;;;;;0.00;0.00;;;;;;;17.89;53.35;98504.66;8217693;28;20289;-76
2022/10/05 08:45:40;;;;;;;0.00;0.00;;;;;;;18.01;53.15;98495.19;8218656;28;20231;-78
2022/10/05 08:49:58;;;;;;;0.00;0.00;;;;;;;18.68;51.78;98502.88;8187858;28;20599;-77
2022/10/05 08:54:44;;;;;;;0.00;0.00;;;;;;;18.64;51.35;98501.41;8217133;28;20238;-78
2022/10/05 08:59:00;;;;;;;0.00;0.00;;;;;;;18.26;53.15;98490.88;8203119;28;20357;-77
2022/10/05 09:03:21;;;;;;;0.00;0.00;;;;;;;18.60;52.74;98497.31;8216976;28;20303;-78
2022/10/05 09:07:52;;;;;;;0.00;0.00;;;;;;;18.74;52.34;98486.69;8216781;28;20250;-78
2022/10/05 09:12:08;;;;;;;0.00;0.00;;;;;;;18.78;53.11;98494.38;8186945;28;20244;-78
2022/10/05 09:16:35;;;;;;;0.00;0.00;;;;;;;18.85;53.31;98486.00;8217055;28;20234;-81
2022/10/05 09:20:51;;;;;;;0.00;0.00;;;;;;;18.46;53.36;98487.75;8216358;28;20235;-80
2022/10/05 09:24:56;;;;;;;0.00;0.00;;;;;;;18.61;54.17;98483.25;8215689;28;20402;-76
2022/10/05 09:29:07;;;;;;;0.00;0.00;;;;;;;18.21;55.11;98482.53;8216281;28;20239;-77
2022/10/05 09:33:57;;;;;;;0.00;0.00;;;;;;;19.32;52.74;98475.66;8216489;28;20248;-77
2022/10/05 09:38:16;;;;;;;0.00;0.00;;;;;;;19.53;51.81;98465.41;8170589;28;20235;-76
2022/10/05 09:42:32;;;;;;;0.00;0.00;;;;;;;19.02;52.91;98474.31;8247951;28;20236;-76
2022/10/05 09:46:54;;;;;;;0.00;0.00;;;;;;;19.30;53.21;98467.91;8247639;28;20222;-77
2022/10/05 09:51:36;;;;;;;0.00;0.00;;;;;;;20.03;52.58;98468.72;8247902;28;20409;-77
2022/10/05 09:56:22;;;;;;;0.00;0.00;;;;;;;20.40;51.47;98467.72;8247581;28;20241;-81
2022/10/05 10:00:39;;;;;;;0.00;0.00;;;;;;;20.85;50.39;98465.16;8215003;28;20306;-78
2022/10/05 10:05:04;;;;;;;0.00;0.00;;;;;;;20.80;50.04;98459.41;8217582;28;20255;-78
2022/10/05 10:09:16;;;;;;;0.00;0.00;;;;;;;20.90;49.39;98460.34;8220963;28;20233;-78
2022/10/05 10:13:44;;;;;;;0.00;0.00;;;;;;;20.95;50.09;98458.19;8221785;28;20601;-78
2022/10/05 10:18:00;;;;;;;0.00;0.00;;;;;;;21.24;49.68;98460.28;8221339;28;20238;-77
2022/10/05 10:22:28;;;;;;;0.00;0.00;;;;;;;21.06;50.60;98452.91;8221619;28;20238;-78
2022/10/05 10:27:07;;;;;;;0.00;0.00;;;;;;;21.10;50.79;98453.50;8220400;28;20237;-78
2022/10/05 10:31:37;;;;;;;0.00;0.00;;;;;;;20.63;51.24;98452.81;8220627;28;20316;-77
2022/10/05 10:35:43;;;;;;;0.00;0.00;;;;;;;20.96;50.86;98453.75;8223389;28;20235;-79
2022/10/05 10:40:07;;;;;;;0.00;0.00;;;;;;;21.48;50.41;98449.59;8220711;28;20227;-77
2022/10/05 10:44:37;;;;;;;0.00;0.00;;;;;;;21.47;49.71;98443.47;8220533;28;20526;-78
2022/10/05 10:48:56;;;;;;;0.00;0.00;;;;;;;21.76;50.27;98455.22;8220235;28;20244;-78
2022/10/05 10:53:09;;;;;;;0.00;0.00;;;;;;;21.11;51.53;98444.63;8219638;28;20242;-80
2022/10/05 10:57:14;;;;;;;0.00;0.00;;;;;;;21.01;51.61;98431.38;8220467;28;20409;-76
2022/10/05 11:01:27;;;;;;;0.00;0.00;;;;;;;21.22;51.38;98431.44;8219737;28;20264;-75
2022/10/05 11:06:10;;;;;;;0.00;0.00;;;;;;;21.86;50.34;98427.16;8218626;28;20331;-75
2022/10/05 11:10:47;;;;;;;0.00;0.00;;;;;;;22.05;49.67;98424.63;8219086;28;20234;-76
2022/10/05 11:15:26;;;;;;;0.00;0.00;;;;;;;22.12;48.27;98419.66;8192842;28;20231;-76
2022/10/05 11:19:52;;;;;;;0.00;0.00;;;;;;;21.95;49.09;98413.19;8218060;28;20231;-76
2022/10/05 11:24:42;;;;;;;0.00;0.00;;;;;;;22.08;48.06;98414.78;8218630;28;20231;-76
2022/10/05 11:29:27;;;;;;;0.00;0.00;;;;;;;21.93;49.07;98417.75;8218694;28;22493;-75
2022/10/05 11:33:50;;;;;;;0.00;0.00;;;;;;;21.79;48.77;98397.81;8222144;28;20238;-75
2022/10/05 11:38:11;;;;;;;0.00;0.00;;;;;;;21.94;49.11;98400.16;8250746;28;20225;-76
2022/10/05 11:42:42;;;;;;;0.00;0.00;;;;;;;22.13;48.88;98396.78;8250317;28;20230;-76
2022/10/05 11:46:52;;;;;;;0.00;0.00;;;;;;;22.23;49.22;98402.94;8250345;28;20249;-75
2022/10/05 11:51:14;;;;;;;0.00;0.00;;;;;;;22.22;48.95;98385.44;8250208;28;20237;-75
2022/10/05 11:55:24;;;;;;;0.00;0.00;;;;;;;22.15;48.24;98385.13;8250651;28;20240;-75
2022/10/05 11:59:33;;;;;;;0.00;0.00;;;;;;;22.03;49.05;98384.38;8249686;28;20284;-75
2022/10/05 12:08:17;;;;;;;0.00;0.00;;;;;;;22.01;48.25;98381.03;8466147;27;1524147;-75
2022/10/05 12:12:24;;;;;;;0.00;0.00;;;;;;;22.34;48.45;98370.41;8509273;27;20232;-75
2022/10/05 12:16:31;;;;;;;0.00;0.00;;;;;;;22.23;47.64;98373.91;8508268;27;20243;-75
2022/10/05 12:20:39;;;;;;;0.00;0.00;;;;;;;22.29;47.04;98377.88;8508764;27;20228;-73
2022/10/05 12:25:00;;;;;;;0.00;0.00;;;;;;;22.51;47.12;98377.69;8508522;27;20241;-72
2022/10/05 12:29:12;;;;;;;0.00;0.00;;;;;;;22.67;47.69;98374.53;8508581;27;20220;-75
2022/10/05 12:33:18;;;;;;;0.00;0.00;;;;;;;22.65;45.92;98374.66;8508951;27;20227;-77
2022/10/05 12:37:37;;;;;;;0.00;0.00;;;;;;;22.38;46.06;98380.53;8508873;27;20251;-75
2022/10/05 12:41:46;;;;;;;0.00;0.00;;;;;;;22.56;47.14;98379.91;8508689;27;20220;-75
2022/10/05 12:45:57;;;;;;;0.00;0.00;;;;;;;22.70;46.40;98378.72;8508937;27;20226;-75
2022/10/05 12:50:12;;;;;;;0.00;0.00;;;;;;;22.24;46.80;98365.06;8508746;27;20225;-73
2022/10/05 12:54:20;;;;;;;0.00;0.00;;;;;;;22.50;47.06;98372.53;8508272;27;20227;-74
2022/10/05 12:58:30;;;;;;;0.00;0.00;;;;;;;22.42;47.70;98373.19;8508706;27;20233;-75
2022/10/05 13:02:41;;;;;;;0.00;0.00;;;;;;;22.67;47.00;98371.06;8540879;27;20628;-75
2022/10/05 13:06:53;;;;;;;0.00;0.00;;;;;;;22.62;47.18;98367.03;8541991;27;20237;-76
2022/10/05 13:11:01;;;;;;;0.00;0.00;;;;;;;22.21;47.36;98355.56;8542474;27;20246;-76
2022/10/05 13:15:10;;;;;;;0.00;0.00;;;;;;;22.21;47.25;98354.75;8542207;27;20236;-76
2022/10/05 13:19:24;;;;;;;0.00;0.00;;;;;;;22.35;48.07;98354.44;8520146;27;20242;-76
2022/10/05 13:23:34;;;;;;;0.00;0.00;;;;;;;22.21;47.93;98352.13;8484440;28;20230;-75
2022/10/05 13:27:42;;;;;;;0.00;0.00;;;;;;;22.24;48.23;98342.13;8484423;28;20230;-75
2022/10/05 13:31:48;;;;;;;0.00;0.00;;;;;;;22.08;47.98;98344.41;8484279;27;20298;-74
2022/10/05 13:35:56;;;;;;;0.00;0.00;;;;;;;21.95;48.66;98338.53;8484190;28;20277;-73
2022/10/05 13:40:11;;;;;;;0.00;0.00;;;;;;;21.89;49.03;98344.31;8483822;28;20229;-74
2022/10/05 13:44:18;;;;;;;0.00;0.00;;;;;;;21.96;49.43;98343.66;8483651;28;20244;-75
2022/10/05 13:48:40;;;;;;;0.00;0.00;;;;;;;21.93;49.82;98337.81;8483491;28;20311;-75
2022/10/05 13:52:50;;;;;;;0.00;0.00;;;;;;;21.81;50.08;98335.25;8483414;28;20492;-74
2022/10/05 13:56:56;;;;;;;0.00;0.00;;;;;;;21.71;49.90;98333.56;8483355;27;20249;-74
2022/10/05 14:01:02;;;;;;;0.00;0.00;;;;;;;21.66;50.42;98339.19;8483293;27;20233;-74
2022/10/05 14:05:16;;;;;;;0.00;0.00;;;;;;;21.50;50.64;98329.09;8483022;28;20257;-75
2022/10/05 14:09:29;;;;;;;0.00;0.00;;;;;;;21.56;50.67;98325.13;8482639;28;20590;-74
2022/10/05 14:13:45;;;;;;;0.00;0.00;;;;;;;21.55;50.49;98320.81;8482159;28;20413;-74
2022/10/05 14:17:50;;;;;;;0.00;0.00;;;;;;;21.60;50.91;98327.38;8482277;27;20513;-74
2022/10/05 14:22:00;;;;;;;0.00;0.00;;;;;;;21.74;50.78;98312.19;8482515;27;20220;-74
2022/10/05 14:26:02;;;;;;;0.00;0.00;;;;;;;21.61;51.32;98320.28;8482498;28;20524;-75
2022/10/05 14:30:19;;;;;;;0.00;0.00;;;;;;;21.69;50.43;98320.50;8481546;28;20225;-74
2022/10/05 14:34:31;;;;;;;0.00;0.00;;;;;;;21.72;50.80;98314.13;8482553;28;20237;-73
2022/10/05 14:38:53;;;;;;;0.00;0.00;;;;;;;21.76;50.95;98302.34;8481731;28;20515;-73
2022/10/05 14:42:55;;;;;;;0.00;0.00;;;;;;;21.70;51.19;98302.88;8481787;27;20227;-73
2022/10/05 14:47:03;;;;;;;0.00;0.00;;;;;;;21.50;51.01;98302.75;8481826;27;20233;-73
2022/10/05 14:51:10;;;;;;;0.00;0.00;;;;;;;21.54;51.43;98303.34;8481978;28;20238;-73
2022/10/05 14:55:25;;;;;;;0.00;0.00;;;;;;;21.38;51.43;98296.69;8482052;27;20239;-73
2022/10/05 14:59:40;;;;;;;0.00;0.00;;;;;;;21.27;51.64;98291.47;8514763;27;20521;-73
2022/10/05 15:03:48;;;;;;;0.00;0.00;;;;;;;21.31;51.87;98287.63;8515748;27;20248;-75
2022/10/05 15:07:51;;;;;;;0.00;0.00;;;;;;;21.25;52.79;98285.50;8514705;27;20228;-74
2022/10/05 15:11:57;;;;;;;0.00;0.00;;;;;;;21.26;52.59;98290.63;8514843;27;20396;-74
2022/10/05 15:16:03;;;;;;;0.00;0.00;;;;;;;21.22;52.06;98293.66;8514587;27;20508;-74
2022/10/05 15:20:16;;;;;;;0.00;0.00;;;;;;;21.00;52.69;98286.69;8514641;27;20232;-74
2022/10/05 15:24:23;;;;;;;0.00;0.00;;;;;;;20.96;52.89;98286.13;8514655;27;20238;-74
2022/10/05 15:28:33;;;;;;;0.00;0.00;;;;;;;20.86;53.21;98285.19;8513647;27;20232;-73
2022/10/05 15:32:47;;;;;;;0.00;0.00;;;;;;;20.82;52.78;98289.84;8514605;27;20306;-75
2022/10/05 15:36:53;;;;;;;0.00;0.00;;;;;;;20.72;53.09;98278.41;8514918;27;20369;-74
2022/10/05 15:41:00;;;;;;;0.00;0.00;;;;;;;20.70;53.26;98277.72;8514399;27;20261;-75
2022/10/05 15:45:13;;;;;;;0.00;0.00;;;;;;;20.61;53.52;98278.44;8514307;27;20232;-74
2022/10/05 15:49:25;;;;;;;0.00;0.00;;;;;;;20.54;53.80;98285.94;8514282;27;20239;-75
2022/10/05 15:53:35;;;;;;;0.00;0.00;;;;;;;20.53;54.15;98278.22;8479552;28;20249;-74
2022/10/05 15:57:44;;;;;;;0.00;0.00;;;;;;;20.43;54.80;98280.75;8481136;28;20233;-74
2022/10/05 16:01:51;;;;;;;0.00;0.00;;;;;;;20.30;55.09;98276.44;8489341;28;20500;-73
2022/10/05 16:10:20;;;;;;;0.00;0.00;;;;;;;20.15;55.61;98268.94;8480247;28;20232;-74
2022/10/05 16:14:33;;;;;;;0.00;0.00;;;;;;;20.14;55.27;98270.72;8480140;28;20233;-75
2022/10/05 16:18:46;;;;;;;0.00;0.00;;;;;;;20.05;55.87;98288.06;8479344;28;20232;-73
2022/10/05 16:22:58;;;;;;;0.00;0.00;;;;;;;19.98;55.93;98286.88;8479635;28;20229;-72
2022/10/05 16:27:04;;;;;;;0.00;0.00;;;;;;;19.90;55.79;98284.00;8479646;28;20228;-73
2022/10/05 16:31:16;;;;;;;0.00;0.00;;;;;;;19.82;55.84;98284.59;8479307;28;20333;-72
2022/10/05 16:35:27;;;;;;;0.00;0.00;;;;;;;19.66;56.01;98295.41;8479833;28;20236;-71
2022/10/05 16:39:45;;;;;;;0.00;0.00;;;;;;;19.66;56.34;98286.69;8479020;28;20238;-71
2022/10/05 16:43:52;;;;;;;0.00;0.00;;;;;;;19.55;56.62;98287.50;8479288;28;20228;-72
2022/10/05 16:48:01;;;;;;;0.00;0.00;;;;;;;19.52;56.99;98293.84;8479452;28;20243;-72
2022/10/05 16:52:10;;;;;;;0.00;0.00;;;;;;;19.46;57.31;98299.56;8481238;28;20407;-72
2022/10/05 16:56:15;;;;;;;0.00;0.00;;;;;;;19.37;57.76;98307.28;8485469;28;20225;-73
2022/10/05 17:00:20;;;;;;;0.00;0.00;;;;;;;19.39;57.95;98306.22;8484777;28;20371;-72
2022/10/05 17:04:34;;;;;;;0.00;0.00;;;;;;;19.33;57.92;98311.94;8484946;28;20257;-71
2022/10/05 17:08:52;;;;;;;0.00;0.00;;;;;;;19.26;58.36;98314.16;8484434;28;20230;-71
2022/10/05 17:13:02;;;;;;;0.00;0.00;;;;;;;19.19;58.69;98312.13;8484801;28;20229;-74
2022/10/05 17:17:35;;;;;;;0.00;0.00;;;;;;;19.10;58.96;98311.03;8484749;28;20425;-73
2022/10/05 17:21:40;;;;;;;0.00;0.00;;;;;;;19.01;59.46;98309.06;8515448;27;20513;-72
2022/10/05 17:25:46;;;;;;;0.00;0.00;;;;;;;18.99;59.67;98311.81;8518402;27;20241;-72
2022/10/05 17:29:50;;;;;;;0.00;0.00;;;;;;;18.96;59.55;98317.25;8518328;27;20229;-72
2022/10/05 17:34:26;;;;;;;0.00;0.00;;;;;;;18.91;59.51;98322.03;8518263;27;20240;-72
2022/10/05 17:38:45;;;;;;;0.00;0.00;;;;;;;18.90;59.79;98325.59;8483282;28;20439;-71
2022/10/05 17:43:00;;;;;;;0.00;0.00;;;;;;;18.88;59.51;98320.44;8483997;28;20506;-73
2022/10/05 17:47:03;;;;;;;0.00;0.00;;;;;;;18.82;59.62;98323.53;8483649;28;20231;-73
2022/10/05 17:55:46;;;;;;;0.00;0.00;;;;;;;18.75;59.50;98325.75;8482880;28;20334;-71
2022/10/05 17:59:59;;;;;;;0.00;0.00;;;;;;;18.71;59.70;98326.88;8483185;28;20242;-72
2022/10/05 18:04:25;;;;;;;0.00;0.00;;;;;;;18.70;59.31;98329.63;8483326;27;20221;-72
2022/10/05 18:08:37;;;;;;;0.00;0.00;;;;;;;18.62;59.97;98327.56;8482876;28;20243;-72
2022/10/05 18:12:45;;;;;;;0.00;0.00;;;;;;;18.60;59.97;98332.09;8481996;28;20230;-71
2022/10/05 18:16:58;;;;;;;0.00;0.00;;;;;;;18.55;60.07;98331.56;8482371;28;20248;-71
2022/10/05 18:21:36;;;;;;;0.00;0.00;;;;;;;18.49;60.09;98343.34;8482761;27;20411;-79
2022/10/05 18:25:45;;;;;;;0.00;0.00;;;;;;;18.45;60.65;98335.78;8482145;27;20284;-71
2022/10/05 18:30:05;;;;;;;0.00;0.00;;;;;;;18.36;60.41;98332.03;8482340;28;20440;-72
2022/10/05 18:34:25;;;;;;;0.00;0.00;;;;;;;18.43;64.67;98349.00;8477758;27;20220;-73
2022/10/05 18:38:35;;;;;;;0.00;0.00;;;;;;;18.49;64.14;98350.38;8495410;27;20343;-71
2022/10/05 18:42:41;;;;;;;0.00;0.00;;;;;;;18.51;65.28;98351.94;8482539;27;20229;-72
2022/10/05 18:46:47;;;;;;;0.00;0.00;;;;;;;18.46;63.33;98340.91;8482234;27;20359;-71
2022/10/05 18:50:56;;;;;;;0.00;0.00;;;;;;;18.34;61.90;98350.50;8482899;27;20444;-74
2022/10/05 18:55:08;;;;;;;0.00;0.00;;;;;;;18.20;61.66;98352.38;8482258;28;20455;-70
2022/10/05 18:59:24;;;;;;;0.00;0.00;;;;;;;18.13;61.80;98352.00;8482487;28;20233;-72
2022/10/05 19:03:30;;;;;;;0.00;0.00;;;;;;;17.98;62.42;98349.47;8481201;28;20221;-72
2022/10/05 19:07:43;;;;;;;0.00;0.00;;;;;;;17.87;62.70;98367.69;8481236;28;20256;-75
2022/10/05 19:11:54;;;;;;;0.00;0.00;;;;;;;17.77;62.96;98362.22;8481571;28;20426;-73
2022/10/05 19:16:10;;;;;;;0.00;0.00;;;;;;;17.77;62.96;98364.00;8480552;28;20225;-74
2022/10/05 19:20:20;;;;;;;0.00;0.00;;;;;;;17.75;63.35;98371.13;8480334;27;20217;-74
2022/10/05 19:24:36;;;;;;;0.00;0.00;;;;;;;17.66;63.39;98372.56;8480219;28;20234;-73
2022/10/05 19:28:45;;;;;;;0.00;0.00;;;;;;;17.58;63.29;98375.69;8480390;28;20432;-73
2022/10/05 19:33:03;;;;;;;0.00;0.00;;;;;;;17.53;63.75;98376.94;8480475;28;20249;-73
2022/10/05 19:37:12;;;;;;;0.00;0.00;;;;;;;17.47;63.46;98391.28;8480047;28;20535;-73
2022/10/05 19:41:21;;;;;;;0.00;0.00;;;;;;;17.40;63.57;98395.25;8480062;28;20236;-73
2022/10/05 19:45:25;;;;;;;0.00;0.00;;;;;;;17.28;63.64;98414.38;8479911;28;20233;-73
2022/10/05 19:49:41;;;;;;;0.00;0.00;;;;;;;17.22;63.99;98417.41;8513268;27;20235;-73
2022/10/05 19:53:48;;;;;;;0.00;0.00;;;;;;;17.12;63.92;98417.97;8514126;27;20298;-72
2022/10/05 19:57:54;;;;;;;0.00;0.00;;;;;;;17.10;63.88;98419.03;8513786;27;20231;-72
2022/10/05 20:01:58;;;;;;;0.00;0.00;;;;;;;17.07;64.08;98419.22;8513942;27;20536;-72
2022/10/05 20:06:02;;;;;;;0.00;0.00;;;;;;;16.93;64.09;98426.16;8513727;28;20239;-72